.
WxDataArchive / Data Records for 2006-05-25
2006-05-24 May 2006 2006-05-26

Data Records for Thursday, 25 May 2006

Time	Temp	Chill	HIndex	Humid	Dewpt	 Wind 	HiWind	WindDir	Rain 	Barom 
-----	----	-----	------	-----	-----	------	------	-------	-----	----- 
00:00	60.9	60.9	60.9	91	58.3	0	0	---	0.00	29.752 
00:05	60.7	60.7	60.7	91	58.1	0	0	---	0.00	29.752 
00:10	60.7	60.7	60.7	92	58.4	0	0	---	0.00	29.752 
00:15	60.7	60.7	60.7	92	58.4	0	0	---	0.00	29.761 
00:20	60.5	60.5	60.5	92	58.2	0	0	---	0.00	29.761 
00:25	60.5	60.5	60.5	92	58.2	0	0	---	0.00	29.761 
00:30	60.5	60.5	60.5	92	58.2	0	0	---	0.00	29.761 
00:35	60.5	60.5	60.5	92	58.2	0	0	---	0.00	29.761 
00:40	60.4	60.4	60.4	92	58.1	0	0	---	0.00	29.761 
00:45	60.4	60.4	60.4	92	58.1	0	0	---	0.00	29.758 
00:50	60.2	60.2	60.2	92	57.9	0	0	---	0.00	29.758 
00:55	60.2	60.2	60.2	93	58.2	0	0	---	0.00	29.758 
01:00	60.2	60.2	60.2	93	58.2	0	1	270	0.00	29.749 
01:05	60.1	60.1	60.1	93	58.1	0	0	---	0.00	29.749 
01:10	60.1	60.1	60.1	93	58.1	0	0	---	0.00	29.749 
01:15	59.9	59.9	59.9	93	57.9	0	0	---	0.00	29.747 
01:20	59.8	59.8	59.8	93	57.8	0	0	---	0.00	29.747 
01:25	59.8	59.8	59.8	93	57.8	0	1	270	0.00	29.747 
01:30	59.8	59.8	59.8	93	57.8	1	2	270	0.00	29.746 
01:35	59.6	59.6	59.6	93	57.6	0	1	270	0.00	29.746 
01:40	59.6	59.6	59.6	93	57.6	0	1	270	0.00	29.746 
01:45	59.5	59.5	59.5	93	57.5	0	1	270	0.00	29.744 
01:50	59.5	59.5	59.5	93	57.5	0	2	270	0.00	29.744 
01:55	59.5	59.5	59.5	93	57.5	0	1	270	0.00	29.744 
02:00	59.5	59.5	59.5	93	57.5	0	1	270	0.00	29.737 
02:05	59.5	59.5	59.5	93	57.5	0	2	270	0.00	29.737 
02:10	59.5	59.5	59.5	93	57.5	0	2	270	0.00	29.737 
02:15	59.5	59.5	59.5	93	57.5	0	1	270	0.00	29.731 
02:20	59.5	59.5	59.5	93	57.5	0	1	270	0.00	29.731 
02:25	59.5	59.5	59.5	93	57.5	0	0	---	0.00	29.731 
02:30	59.5	59.5	59.5	93	57.5	0	0	---	0.00	29.731 
02:35	59.6	59.6	59.6	94	57.9	1	3	270	0.00	29.731 
02:40	59.6	59.6	59.6	94	57.9	1	3	270	0.00	29.731 
02:45	59.6	59.6	59.6	94	57.9	0	3	270	0.00	29.749 
02:50	59.8	59.8	59.8	93	57.8	0	1	270	0.00	29.749 
02:55	59.8	59.8	59.8	93	57.8	0	1	270	0.00	29.749 
03:00	59.8	59.8	59.8	93	57.8	0	1	270	0.00	29.748 
03:05	59.8	59.8	59.8	93	57.8	0	1	270	0.00	29.748 
03:10	59.6	59.6	59.6	93	57.6	0	1	270	0.00	29.748 
03:15	59.6	59.6	59.6	93	57.6	0	1	270	0.00	29.731 
03:20	59.5	59.5	59.5	93	57.5	1	2	270	0.00	29.731 
03:25	59.8	59.8	59.8	94	58.1	1	3	90	0.00	29.731 
03:30	59.9	59.9	59.9	94	58.2	0	2	68	0.00	29.701 
03:35	59.9	59.9	59.9	93	57.9	0	2	68	0.00	29.701 
03:40	59.9	59.9	59.9	93	57.9	0	2	68	0.00	29.701 
03:45	59.9	59.9	59.9	93	57.9	1	2	68	0.00	29.681 
03:50	59.9	59.9	59.9	93	57.9	1	3	68	0.00	29.681 
03:55	59.9	59.9	59.9	93	57.9	0	3	90	0.00	29.681 
04:00	59.8	59.8	59.8	92	57.5	0	2	90	0.00	29.685 
04:05	59.6	59.6	59.6	93	57.6	1	2	90	0.00	29.685 
04:10	59.8	59.8	59.8	93	57.8	0	2	90	0.00	29.685 
04:15	59.9	59.9	59.9	93	57.9	1	4	90	0.00	29.685 
04:20	59.9	59.9	59.9	93	57.9	0	3	248	0.00	29.685 
04:25	59.9	59.9	59.9	93	57.9	0	1	248	0.00	29.685 
04:30	59.8	59.8	59.8	93	57.8	0	1	248	0.00	29.684 
04:35	59.8	59.8	59.8	93	57.8	0	1	248	0.00	29.684 
04:40	59.6	59.6	59.6	93	57.6	0	0	---	0.00	29.684 
04:45	59.6	59.6	59.6	93	57.6	0	1	248	0.00	29.682 
04:50	59.8	59.8	59.8	94	58.1	0	2	248	0.00	29.682 
04:55	59.8	59.8	59.8	94	58.1	0	1	248	0.00	29.682 
05:00	59.9	59.9	59.9	94	58.2	0	1	248	0.00	29.671 
05:05	60.2	60.2	60.2	94	58.5	0	2	202	0.00	29.671 
05:10	60.4	60.4	60.4	94	58.7	0	2	202	0.00	29.671 
05:15	60.4	60.4	60.4	94	58.7	0	1	202	0.00	29.674 
05:20	60.4	60.4	60.4	94	58.7	0	3	112	0.00	29.674 
05:25	60.1	60.1	60.1	94	58.4	0	1	112	0.00	29.674 
05:30	59.9	59.9	59.9	93	57.9	0	0	---	0.00	29.675 
05:35	59.6	59.6	59.6	93	57.6	0	0	---	0.00	29.675 
05:40	59.5	59.5	59.5	93	57.5	0	0	---	0.00	29.675 
05:45	59.5	59.5	59.5	94	57.8	0	1	112	0.00	29.678 
05:50	59.3	59.3	59.3	94	57.6	0	1	112	0.00	29.678 
05:55	59.3	59.3	59.3	94	57.6	0	1	112	0.00	29.678 
06:00	59.2	59.2	59.2	94	57.5	0	0	---	0.00	29.674 
06:05	59.0	59.0	59.0	94	57.3	0	0	---	0.00	29.674 
06:10	58.9	58.9	58.9	94	57.2	0	1	112	0.00	29.674 
06:15	59.0	59.0	59.0	94	57.3	0	1	112	0.00	29.671 
06:20	59.5	59.5	59.5	95	58.1	0	2	112	0.00	29.671 
06:25	59.8	59.8	59.8	95	58.4	0	2	112	0.00	29.671 
06:30	60.1	60.1	60.1	95	58.7	0	1	112	0.00	29.670 
06:35	60.4	60.4	60.4	95	59.0	1	3	90	0.00	29.670 
06:40	60.5	60.5	60.5	95	59.1	1	3	90	0.00	29.670 
06:45	60.7	60.7	60.7	95	59.3	1	2	112	0.00	29.671 
06:50	60.7	60.7	60.7	95	59.3	0	2	112	0.00	29.671 
06:55	60.9	60.9	60.9	95	59.5	1	2	90	0.00	29.671 
07:00	60.9	60.9	60.9	95	59.5	0	2	90	0.00	29.673 
07:05	61.0	61.0	61.0	94	59.3	1	3	90	0.00	29.673 
07:10	61.2	61.2	61.2	94	59.5	0	2	112	0.00	29.673 
07:15	61.2	61.2	61.2	94	59.5	1	3	112	0.00	29.672 
07:20	61.3	61.3	61.3	94	59.6	1	3	112	0.00	29.672 
07:25	61.5	61.5	61.5	94	59.8	1	3	112	0.00	29.672 
07:30	61.6	61.6	61.6	94	59.9	1	2	112	0.00	29.671 
07:35	61.8	61.8	61.8	93	59.8	0	2	112	0.00	29.671 
07:40	62.0	62.0	62.0	93	59.9	1	2	112	0.00	29.671 
07:45	62.3	62.3	62.3	93	60.2	0	1	112	0.00	29.671 
07:50	62.4	62.4	62.4	93	60.3	0	1	112	0.00	29.671 
07:55	62.6	62.6	62.6	92	60.2	1	3	112	0.00	29.671 
08:00	62.9	62.9	62.9	92	60.5	1	2	112	0.00	29.671 
08:05	63.1	63.1	63.1	92	60.7	0	2	112	0.00	29.671 
08:10	63.4	63.4	63.4	91	60.7	1	2	202	0.00	29.671 
08:15	63.5	63.5	63.5	91	60.8	2	4	248	0.00	29.686 
08:20	63.7	63.7	63.7	91	61.0	1	4	248	0.00	29.686 
08:25	63.9	63.9	63.9	91	61.2	2	5	270	0.00	29.686 
08:30	64.0	64.0	64.0	90	61.0	1	3	248	0.00	29.684 
08:35	64.2	64.2	64.2	90	61.2	2	5	248	0.00	29.684 
08:40	64.5	64.5	64.5	90	61.5	2	6	248	0.00	29.684 
08:45	64.7	64.7	64.7	90	61.7	1	4	248	0.00	29.671 
08:50	65.0	65.0	65.0	90	62.0	2	5	248	0.00	29.671 
08:55	65.5	65.5	65.5	89	62.2	2	6	270	0.00	29.671 
09:00	65.8	65.8	65.8	88	62.1	3	6	248	0.00	29.667 
09:05	66.0	66.0	66.0	88	62.3	2	5	248	0.00	29.667 
09:10	66.3	66.3	66.3	88	62.6	1	5	248	0.00	29.667 
09:15	66.4	66.4	66.4	88	62.7	2	6	248	0.00	29.670 
09:20	66.6	66.6	66.6	87	62.6	2	4	292	0.00	29.670 
09:25	66.9	66.9	66.9	87	62.9	2	7	248	0.00	29.670 
09:30	67.1	67.1	67.1	87	63.1	3	10	248	0.00	29.664 
09:35	67.3	67.3	67.3	87	63.3	2	9	270	0.00	29.664 
09:40	67.8	67.8	67.8	86	63.5	3	5	248	0.00	29.664 
09:45	68.1	68.1	68.1	85	63.4	3	7	248	0.00	29.657 
09:50	68.4	68.4	68.4	85	63.7	2	9	248	0.01	29.657 
09:55	68.9	68.9	68.9	83	63.5	4	10	248	0.00	29.657 
10:00	69.4	69.4	69.4	83	64.0	3	5	248	0.00	29.653 
10:05	69.9	69.9	69.9	82	64.1	3	10	248	0.00	29.653 
10:10	70.4	70.4	70.4	80	63.9	3	7	270	0.00	29.653 
10:15	70.8	70.8	70.8	79	64.0	3	7	248	0.00	29.652 
10:20	71.1	71.1	71.1	80	64.6	3	6	248	0.00	29.652 
10:25	71.1	71.1	71.1	79	64.2	4	7	270	0.00	29.652 
10:30	71.3	71.3	71.3	80	64.8	2	7	248	0.00	29.650 
10:35	71.8	71.8	71.8	78	64.6	3	6	270	0.00	29.650 
10:40	71.8	71.8	71.8	77	64.2	3	9	248	0.00	29.650 
10:45	72.0	72.0	72.0	78	64.8	4	10	248	0.00	29.647 
10:50	72.1	72.1	72.1	78	64.8	3	8	248	0.00	29.647 
10:55	72.3	72.3	72.3	77	64.7	3	7	248	0.00	29.647 
11:00	72.1	72.1	72.1	78	64.8	4	10	270	0.00	29.651 
11:05	72.0	72.0	72.0	77	64.4	3	10	248	0.00	29.651 
11:10	72.3	72.3	72.3	78	65.0	3	9	248	0.00	29.651 
11:15	72.8	72.8	72.8	77	65.2	3	7	248	0.00	29.646 
11:20	73.2	73.2	73.2	77	65.5	4	7	270	0.00	29.646 
11:25	73.9	73.9	73.9	76	65.8	3	6	270	0.00	29.646 
11:30	74.4	74.4	74.4	74	65.6	3	11	270	0.00	29.640 
11:35	74.2	74.2	74.2	75	65.8	4	7	270	0.00	29.640 
11:40	74.9	74.9	74.9	73	65.6	3	9	270	0.00	29.640 
11:45	75.6	75.6	77.2	71	65.5	4	10	270	0.00	29.635 
11:50	75.8	75.8	77.4	70	65.3	5	10	270	0.00	29.635 
11:55	75.8	75.8	77.5	69	64.9	4	13	270	0.00	29.635 
12:00	76.0	76.0	77.5	72	66.3	2	5	248	0.00	29.638 
12:05	76.5	76.5	78.3	68	65.1	3	8	248	0.00	29.638 
12:10	76.5	76.5	78.2	69	65.6	3	7	248	0.00	29.638 
12:15	76.8	76.8	78.5	70	66.3	3	7	248	0.00	29.633 
12:20	77.0	77.0	78.8	67	65.2	4	10	270	0.00	29.633 
12:25	77.0	77.0	78.8	69	66.0	3	7	248	0.00	29.633 
12:30	77.6	77.6	79.4	66	65.3	4	7	270	0.00	29.631 
12:35	77.9	77.9	79.8	67	66.0	3	9	248	0.00	29.631 
12:40	78.1	78.1	80.0	65	65.4	3	6	270	0.00	29.631 
12:45	78.3	78.3	80.2	65	65.5	4	7	270	0.00	29.629 
12:50	77.7	77.7	79.6	66	65.4	4	7	248	0.00	29.629 
12:55	77.9	77.9	79.8	66	65.6	4	10	248	0.00	29.629 
13:00	78.3	78.3	80.1	63	64.6	5	13	270	0.00	29.624 
13:05	78.8	78.8	80.9	66	66.5	3	7	248	0.00	29.624 
13:10	79.2	79.2	81.2	64	65.9	3	12	270	0.00	29.624 
13:15	79.4	79.4	81.4	63	65.7	3	7	248	0.00	29.619 
13:20	79.4	79.4	81.4	63	65.7	3	11	248	0.00	29.619 
13:25	79.4	79.4	81.4	63	65.7	3	7	248	0.00	29.619 
13:30	79.2	79.2	81.2	64	65.9	4	10	248	0.00	29.615 
13:35	79.0	79.0	81.0	65	66.2	2	10	248	0.00	29.615 
13:40	79.2	79.2	81.4	66	66.8	2	6	248	0.00	29.615 
13:45	79.0	79.0	81.0	64	65.8	3	7	248	0.00	29.616 
13:50	78.8	78.8	80.8	65	66.0	3	10	248	0.00	29.616 
13:55	78.6	78.6	80.6	66	66.3	2	6	248	0.00	29.616 
14:00	78.5	78.5	80.4	65	65.7	3	6	248	0.00	29.615 
14:05	78.5	78.5	80.6	68	67.0	1	5	248	0.00	29.615 
14:10	78.3	78.3	80.2	65	65.5	2	6	248	0.00	29.615 
14:15	78.5	78.5	80.5	67	66.6	3	7	270	0.00	29.604 
14:20	78.6	78.6	80.6	66	66.3	2	6	248	0.00	29.604 
14:25	78.6	78.6	80.7	67	66.7	3	7	292	0.00	29.604 
14:30	79.6	79.6	81.7	64	66.3	3	5	248	0.00	29.600 
14:35	79.9	79.9	81.9	62	65.7	3	6	248	0.00	29.600 
14:40	79.6	79.6	81.4	61	64.9	2	9	248	0.00	29.600 
14:45	79.8	79.8	82.1	65	67.0	3	6	248	0.00	29.591 
14:50	80.3	80.3	82.5	63	66.5	3	6	248	0.00	29.591 
14:55	80.7	80.7	82.9	62	66.4	3	9	270	0.00	29.591 
15:00	80.5	80.5	82.4	60	65.3	3	5	248	0.00	29.583 
15:05	80.5	80.5	82.7	62	66.3	3	7	248	0.00	29.583 
15:10	80.9	80.9	82.9	60	65.7	4	9	270	0.00	29.583 
15:15	80.9	80.9	82.9	60	65.7	4	9	270	0.00	29.581 
15:20	81.2	81.2	82.9	57	64.5	4	9	270	0.00	29.581 
15:25	81.4	81.4	83.0	56	64.2	3	10	270	0.00	29.581 
15:30	81.6	81.6	83.7	59	65.9	1	3	248	0.00	29.560 
15:35	82.6	82.6	84.3	55	64.8	2	5	248	0.00	29.560 
15:40	83.0	83.0	84.7	54	64.6	2	7	248	0.00	29.560 
15:45	82.8	82.8	83.7	50	62.2	3	7	270	0.00	29.530 
15:50	82.6	82.6	83.6	51	62.6	3	6	248	0.00	29.530 
15:55	82.4	82.4	83.5	52	63.0	3	6	270	0.00	29.530 
16:00	82.6	82.6	84.0	53	63.7	2	4	248	0.00	29.505 
16:05	83.0	83.0	84.3	52	63.5	2	5	270	0.00	29.505 
16:10	83.4	83.4	85.0	53	64.4	2	4	248	0.00	29.505 
16:15	83.6	83.6	85.2	53	64.6	1	4	270	0.00	29.501 
16:20	83.6	83.6	84.6	50	63.0	2	9	248	0.00	29.501 
16:25	83.2	83.2	84.1	50	62.6	3	6	248	0.00	29.501 
16:30	83.2	83.2	84.3	51	63.2	3	9	248	0.00	29.514 
16:35	82.0	82.0	83.2	53	63.2	3	7	270	0.00	29.514 
16:40	81.2	81.2	82.7	56	64.0	2	6	248	0.00	29.514 
16:45	80.5	80.5	82.1	57	63.8	3	5	270	0.00	29.515 
16:50	80.3	80.3	81.8	57	63.7	3	6	248	0.00	29.515 
16:55	80.1	80.1	81.5	56	63.0	3	6	248	0.00	29.515 
17:00	79.9	79.9	81.4	57	63.3	2	6	248	0.00	29.521 
17:05	79.8	79.8	81.3	57	63.2	3	7	248	0.00	29.521 
17:10	79.6	79.6	81.2	58	63.5	3	5	248	0.00	29.521 
17:15	79.4	79.4	80.9	58	63.3	2	4	248	0.00	29.519 
17:20	79.4	79.4	80.9	58	63.3	2	5	270	0.00	29.519 
17:25	79.4	79.4	80.8	56	62.3	1	3	248	0.00	29.519 
17:30	79.4	79.4	80.9	57	62.8	1	3	248	0.00	29.521 
17:35	78.6	78.6	80.0	55	61.1	2	5	248	0.00	29.521 
17:40	76.5	76.5	78.4	56	59.6	2	6	315	0.00	29.521 
17:45	74.2	74.2	74.2	60	59.4	2	5	270	0.00	29.519 
17:50	73.2	73.2	73.2	63	59.8	1	4	270	0.00	29.519 
17:55	72.1	72.1	72.1	62	58.3	1	3	292	0.00	29.519 
18:00	71.3	71.3	71.3	69	60.6	0	4	270	0.00	29.518 
18:05	69.6	69.6	69.6	73	60.6	1	2	338	0.00	29.518 
18:10	68.4	68.4	68.4	73	59.4	0	2	315	0.01	29.518 
18:15	67.9	67.9	67.9	73	58.9	1	4	292	0.00	29.528 
18:20	66.9	66.9	66.9	77	59.4	2	5	292	0.00	29.528 
18:25	66.0	66.0	66.0	80	59.6	3	6	315	0.02	29.528 
18:30	65.3	65.3	65.3	83	60.0	2	5	315	0.00	29.533 
18:35	65.0	65.0	65.0	85	60.4	1	3	292	0.00	29.533 
18:40	64.8	64.8	64.8	86	60.5	1	3	248	0.00	29.533 
18:45	64.8	64.8	64.8	87	60.8	2	5	248	0.00	29.557 
18:50	64.8	64.8	64.8	88	61.2	1	4	248	0.01	29.557 
18:55	64.7	64.7	64.7	88	61.1	1	3	270	0.01	29.557 
19:00	64.7	64.7	64.7	88	61.1	0	2	270	0.01	29.532 
19:05	64.5	64.5	64.5	89	61.2	0	1	270	0.00	29.532 
19:10	64.5	64.5	64.5	89	61.2	0	1	270	0.00	29.532 
19:15	64.7	64.7	64.7	89	61.4	1	2	270	0.00	29.523 
19:20	65.0	65.0	65.0	90	62.0	1	2	248	0.00	29.523 
19:25	65.0	65.0	65.0	89	61.7	1	3	90	0.00	29.523 
19:30	65.2	65.2	65.2	88	61.6	2	3	90	0.00	29.510 
19:35	65.3	65.3	65.3	88	61.6	1	3	90	0.00	29.510 
19:40	65.5	65.5	65.5	88	61.8	3	5	90	0.00	29.510 
19:45	65.5	65.5	65.5	89	62.2	1	4	90	0.00	29.514 
19:50	65.3	65.3	65.3	89	62.0	1	3	90	0.00	29.514 
19:55	65.2	65.2	65.2	89	61.9	1	3	90	0.00	29.514 
20:00	65.0	65.0	65.0	89	61.7	1	3	68	0.00	29.502 
20:05	65.0	65.0	65.0	89	61.7	1	4	90	0.00	29.502 
20:10	65.2	65.2	65.2	89	61.9	1	4	112	0.00	29.502 
20:15	65.2	65.2	65.2	89	61.9	1	3	90	0.00	29.501 
20:20	65.3	65.3	65.3	87	61.3	1	4	90	0.00	29.501 
20:25	65.2	65.2	65.2	86	60.9	1	2	22	0.00	29.501 
20:30	65.2	65.2	65.2	86	60.9	0	2	22	0.00	29.503 
20:35	65.0	65.0	65.0	85	60.4	1	3	90	0.00	29.503 
20:40	64.7	64.7	64.7	85	60.1	1	3	248	0.00	29.503 
20:45	64.5	64.5	64.5	84	59.6	2	7	270	0.00	29.513 
20:50	64.5	64.5	64.5	84	59.6	1	4	135	0.00	29.513 
20:55	64.5	64.5	64.5	84	59.6	2	6	270	0.00	29.513 
21:00	64.5	64.5	64.5	84	59.6	2	4	270	0.00	29.512 
21:05	64.5	64.5	64.5	83	59.2	2	4	248	0.00	29.512 
21:10	64.3	64.3	64.3	84	59.4	2	5	270	0.00	29.512 
21:15	64.3	64.3	64.3	84	59.4	2	5	270	0.00	29.511 
21:20	64.3	64.3	64.3	83	59.0	2	5	270	0.00	29.511 
21:25	64.5	64.5	64.5	82	58.9	2	5	270	0.00	29.511 
21:30	64.5	64.5	64.5	82	58.9	2	6	270	0.00	29.511 
21:35	64.5	64.5	64.5	83	59.2	2	6	248	0.00	29.511 
21:40	64.5	64.5	64.5	83	59.2	2	4	248	0.00	29.511 
21:45	64.7	64.7	64.7	85	60.1	3	6	248	0.01	29.520 
21:50	64.0	64.0	64.0	87	60.0	1	2	248	0.06	29.520 
21:55	63.5	63.5	63.5	88	59.9	1	3	248	0.01	29.520 
22:00	63.2	63.2	63.2	90	60.2	0	2	248	0.00	29.513 
22:05	63.1	63.1	63.1	90	60.1	0	1	248	0.00	29.513 
22:10	63.1	63.1	63.1	91	60.4	1	2	248	0.00	29.513 
22:15	63.1	63.1	63.1	91	60.4	1	3	248	0.00	29.512 
22:20	62.9	62.9	62.9	91	60.2	0	1	248	0.00	29.512 
22:25	62.9	62.9	62.9	91	60.2	0	1	248	0.00	29.512 
22:30	62.7	62.7	62.7	91	60.0	0	1	248	0.00	29.511 
22:35	62.7	62.7	62.7	91	60.0	0	1	248	0.00	29.511 
22:40	62.6	62.6	62.6	92	60.2	0	1	248	0.00	29.511 
22:45	62.6	62.6	62.6	92	60.2	0	1	248	0.00	29.513 
22:50	62.6	62.6	62.6	92	60.2	0	1	248	0.00	29.513 
22:55	62.7	62.7	62.7	92	60.3	0	3	248	0.00	29.513 
23:00	62.7	62.7	62.7	92	60.3	0	1	248	0.00	29.522 
23:05	62.9	62.9	62.9	92	60.5	1	4	248	0.00	29.522 
23:10	62.9	62.9	62.9	92	60.5	1	3	248	0.00	29.522 
23:15	63.1	63.1	63.1	92	60.7	1	3	248	0.00	29.510 
23:20	63.1	63.1	63.1	92	60.7	1	2	248	0.00	29.510 
23:25	63.1	63.1	63.1	92	60.7	1	3	248	0.00	29.510 
23:30	63.2	63.2	63.2	92	60.8	0	2	248	0.00	29.508 
23:35	63.2	63.2	63.2	92	60.8	1	3	248	0.00	29.508 
23:40	63.2	63.2	63.2	92	60.8	1	4	248	0.00	29.508 
23:45	63.2	63.2	63.2	92	60.8	0	2	248	0.00	29.509 
23:50	63.4	63.4	63.4	92	61.0	1	3	248	0.00	29.509 
23:55	63.4	63.4	63.4	92	61.0	1	2	248	0.00	29.509 

CoCoRaHS
IN-AL-39
A2 Web Hosting
Creative Commons License
GoDaddy
Look for:

loaded 2017-10-19 14:41:56 • last modified 2010-11-18 10:43:29
Privacy PolicyDisclaimer
• wx.awcolley.com is powered by PmWiki v.2002016 •
• all content (unless otherwise noted) © 2017 A W Colley